Time;durP1;ratioP1;P1;durP2;ratioP2;P2;SDS_P1;SDS_P2;PMS_P1;PMS_P2;Temp;Humidity;BMP_temperature;BMP_pressure;BME280_temperature;BME280_humidity;BME280_pressure;Samples;Min_cycle;Max_cycle;Signal;HPM_P1;HPM_P2
2024/04/15 00:00:07;;;;;;;7.78;1.40;;;10.50;99.90;;;;;;5247243;27;20018;-86
2024/04/15 00:02:33;;;;;;;3.92;1.20;;;10.40;99.90;;;;;;5246657;27;20462;-86
2024/04/15 00:05:00;;;;;;;7.72;1.70;;;10.30;99.90;;;;;;5277042;27;20021;-87
2024/04/15 00:07:26;;;;;;;5.78;1.42;;;10.20;99.90;;;;;;5256159;27;20009;-86
2024/04/15 00:09:52;;;;;;;8.45;1.95;;;10.00;99.90;;;;;;5270771;27;20010;-86
2024/04/15 00:12:17;;;;;;;10.77;1.95;;;10.00;99.90;;;;;;5269722;27;19995;-86
2024/04/15 00:14:44;;;;;;;11.32;1.38;;;9.90;99.90;;;;;;5273915;27;20010;-86
2024/04/15 00:17:10;;;;;;;5.82;1.08;;;9.80;99.90;;;;;;5258805;27;20013;-86
2024/04/15 00:19:36;;;;;;;6.85;1.48;;;9.70;99.90;;;;;;5245282;27;20021;-86
2024/04/15 00:22:02;;;;;;;7.25;1.50;;;9.60;99.90;;;;;;5275003;27;20010;-87
2024/04/15 00:24:28;;;;;;;6.88;1.45;;;9.60;99.90;;;;;;5272571;27;20021;-86
2024/04/15 00:26:53;;;;;;;7.43;1.38;;;9.50;99.90;;;;;;5227665;27;20007;-86
2024/04/15 00:29:19;;;;;;;11.32;1.25;;;9.40;99.90;;;;;;5265533;27;20013;-86
2024/04/15 00:31:45;;;;;;;7.10;1.60;;;9.30;99.90;;;;;;5279737;27;19999;-86
2024/04/15 00:34:10;;;;;;;9.25;1.48;;;9.30;99.90;;;;;;5270116;27;20012;-83
2024/04/15 00:36:36;;;;;;;5.45;1.27;;;9.20;99.90;;;;;;5258144;27;20010;-86
2024/04/15 00:39:02;;;;;;;6.95;1.10;;;9.20;99.90;;;;;;5240800;27;19999;-86
2024/04/15 00:41:28;;;;;;;8.55;1.25;;;9.10;99.90;;;;;;5278597;27;20002;-86
2024/04/15 00:43:53;;;;;;;8.13;1.15;;;9.10;99.90;;;;;;5279763;27;19998;-86
2024/04/15 00:46:19;;;;;;;6.10;1.15;;;9.00;99.90;;;;;;5247419;27;20018;-86
2024/04/15 00:48:45;;;;;;;5.13;1.60;;;9.00;99.90;;;;;;5222348;27;20018;-86
2024/04/15 00:51:13;;;;;;;9.07;1.60;;;9.00;99.90;;;;;;5231283;27;20466;-86
2024/04/15 00:53:41;;;;;;;6.97;1.42;;;8.90;99.90;;;;;;5278019;27;20002;-87
2024/04/15 00:56:07;;;;;;;9.50;1.38;;;8.90;99.90;;;;;;5278666;27;20009;-87
2024/04/15 00:58:34;;;;;;;4.35;1.52;;;8.80;99.90;;;;;;5278200;27;20034;-87
2024/04/15 01:01:01;;;;;;;7.05;1.50;;;8.80;99.90;;;;;;5279030;27;19998;-86
2024/04/15 01:03:27;;;;;;;6.90;1.63;;;8.80;99.90;;;;;;5249144;27;20006;-86
2024/04/15 01:05:53;;;;;;;8.55;1.50;;;8.80;99.90;;;;;;5279208;27;20002;-87
2024/04/15 01:08:19;;;;;;;6.40;1.67;;;8.70;99.90;;;;;;5266070;27;20014;-87
2024/04/15 01:10:45;;;;;;;6.47;1.65;;;8.70;99.90;;;;;;5265846;27;20033;-87
2024/04/15 01:13:11;;;;;;;7.50;1.77;;;8.70;99.90;;;;;;5278410;27;20462;-84
2024/04/15 01:15:36;;;;;;;9.95;1.98;;;8.60;99.90;;;;;;5273011;27;20018;-86
2024/04/15 01:18:02;;;;;;;9.43;2.00;;;8.60;99.90;;;;;;5274825;27;20462;-87
2024/04/15 01:20:28;;;;;;;8.45;1.23;;;8.60;99.90;;;;;;5248960;27;19998;-87
2024/04/15 01:23:18;;;;;;;10.23;2.08;;;8.60;99.90;;;;;;5278295;27;20018;-86
2024/04/15 01:25:44;;;;;;;8.93;2.10;;;8.60;99.90;;;;;;5256211;27;20084;-86
2024/04/15 01:28:10;;;;;;;6.45;1.73;;;8.50;99.90;;;;;;5247488;27;20010;-86
2024/04/15 01:30:35;;;;;;;8.02;1.52;;;8.50;99.90;;;;;;5249176;27;20003;-87
2024/04/15 01:33:01;;;;;;;7.40;2.00;;;8.50;99.90;;;;;;5248744;27;20667;-86
2024/04/15 01:35:26;;;;;;;9.75;2.08;;;8.50;99.90;;;;;;5248772;27;19995;-86
2024/04/15 01:37:53;;;;;;;11.95;2.83;;;8.50;99.90;;;;;;5244024;27;20006;-86
2024/04/15 01:40:18;;;;;;;9.23;2.20;;;8.50;99.90;;;;;;5272334;27;20093;-87
2024/04/15 01:42:44;;;;;;;9.80;2.33;;;8.50;99.90;;;;;;5269539;27;20015;-86
2024/04/15 01:45:10;;;;;;;9.32;2.65;;;8.60;99.90;;;;;;5278695;27;20010;-86
2024/04/15 01:47:35;;;;;;;9.85;3.47;;;8.60;99.90;;;;;;5260154;27;20014;-86
2024/04/15 01:50:01;;;;;;;9.88;2.85;;;8.70;99.90;;;;;;5272290;27;20003;-86
2024/04/15 01:52:27;;;;;;;13.73;3.35;;;8.70;99.90;;;;;;5259176;27;20010;-86
2024/04/15 01:54:53;;;;;;;12.32;3.80;;;8.70;99.90;;;;;;5278241;27;20006;-85
2024/04/15 01:57:18;;;;;;;9.30;3.83;;;8.70;99.90;;;;;;5271451;27;20006;-86
2024/04/15 01:59:44;;;;;;;10.13;3.55;;;8.80;99.90;;;;;;5271381;27;20002;-86
2024/04/15 02:02:09;;;;;;;8.85;3.75;;;8.80;99.90;;;;;;5272498;27;20106;-86
2024/04/15 02:04:35;;;;;;;7.75;3.40;;;8.80;99.90;;;;;;5273239;27;20017;-86
2024/04/15 02:07:00;;;;;;;13.02;4.35;;;8.80;99.90;;;;;;5277793;27;20021;-86
2024/04/15 02:09:26;;;;;;;10.35;3.80;;;8.80;99.90;;;;;;5247225;27;20014;-86
2024/04/15 02:11:51;;;;;;;7.13;3.03;;;8.80;99.90;;;;;;5270142;27;20003;-86
2024/04/15 02:14:17;;;;;;;13.20;4.40;;;8.80;99.90;;;;;;5251402;27;20015;-87
2024/04/15 02:16:43;;;;;;;11.73;3.88;;;8.80;99.90;;;;;;5271319;27;20003;-86
2024/04/15 02:19:08;;;;;;;11.18;3.72;;;8.80;99.90;;;;;;5247905;27;20003;-86
2024/04/15 02:21:34;;;;;;;10.23;3.35;;;8.80;99.90;;;;;;5247352;27;20021;-86
2024/04/15 02:23:59;;;;;;;11.98;4.03;;;8.80;99.90;;;;;;5275757;27;20002;-86
2024/04/15 02:26:25;;;;;;;10.50;4.20;;;8.80;99.90;;;;;;5272463;27;20006;-86
2024/04/15 02:28:50;;;;;;;10.02;3.58;;;8.80;99.90;;;;;;5267106;27;20416;-87
2024/04/15 02:31:16;;;;;;;10.68;4.00;;;8.80;99.90;;;;;;5277482;27;20016;-87
2024/04/15 02:33:41;;;;;;;12.23;4.53;;;8.80;99.90;;;;;;5248975;27;20072;-86
2024/04/15 02:36:07;;;;;;;11.32;4.53;;;8.70;99.90;;;;;;5261749;27;20003;-86
2024/04/15 02:38:33;;;;;;;11.45;5.13;;;8.70;99.90;;;;;;5246492;27;20018;-86
2024/04/15 02:40:58;;;;;;;11.30;4.45;;;8.70;99.90;;;;;;5265119;27;20007;-86
2024/04/15 02:43:24;;;;;;;10.88;5.05;;;8.70;99.90;;;;;;5276397;27;20017;-86
2024/04/15 02:45:49;;;;;;;9.35;4.80;;;8.70;99.90;;;;;;5248168;27;19998;-86
2024/04/15 02:48:18;;;;;;;12.77;5.15;;;8.70;99.90;;;;;;5275489;27;19999;-86
2024/04/15 02:50:44;;;;;;;11.15;5.20;;;8.70;99.90;;;;;;5248988;27;20090;-86
2024/04/15 02:53:09;;;;;;;12.98;5.53;;;8.60;99.90;;;;;;5274834;27;20002;-86
2024/04/15 02:55:35;;;;;;;11.02;4.22;;;8.60;99.90;;;;;;5273214;27;20451;-86
2024/04/15 02:58:00;;;;;;;11.52;5.43;;;8.60;99.90;;;;;;5269147;27;20006;-86
2024/04/15 03:00:26;;;;;;;15.32;6.05;;;8.60;99.90;;;;;;5273960;27;20470;-86
2024/04/15 03:02:52;;;;;;;14.85;4.93;;;8.50;99.90;;;;;;5276655;27;20003;-86
2024/04/15 03:05:17;;;;;;;11.23;4.65;;;8.50;99.90;;;;;;5261246;27;20327;-86
2024/04/15 03:07:46;;;;;;;11.10;4.63;;;8.50;99.90;;;;;;5241727;27;20010;-86
2024/04/15 03:10:12;;;;;;;16.45;5.03;;;8.40;99.90;;;;;;5242228;27;20026;-85
2024/04/15 03:12:37;;;;;;;12.05;4.53;;;8.40;99.90;;;;;;5267942;27;20017;-86
2024/04/15 03:15:03;;;;;;;10.10;4.00;;;8.30;99.90;;;;;;5248360;27;20017;-86
2024/04/15 03:17:28;;;;;;;17.65;4.50;;;8.30;99.90;;;;;;5251412;27;20355;-86
2024/04/15 03:19:54;;;;;;;15.57;4.30;;;8.20;99.90;;;;;;5273816;27;20008;-85
2024/04/15 03:22:20;;;;;;;12.25;3.63;;;8.30;99.90;;;;;;5261172;27;20007;-86
2024/04/15 03:24:50;;;;;;;10.98;4.22;;;8.20;99.90;;;;;;5243116;27;20010;-86
2024/04/15 03:27:19;;;;;;;13.32;5.07;;;8.10;99.90;;;;;;5275114;27;19998;-86
2024/04/15 03:29:45;;;;;;;12.70;4.68;;;8.10;99.90;;;;;;5241325;27;20080;-86
2024/04/15 03:32:10;;;;;;;7.72;4.13;;;8.10;99.90;;;;;;5261697;27;19999;-85
2024/04/15 03:34:36;;;;;;;14.45;4.78;;;8.00;99.90;;;;;;5272581;27;20169;-86
2024/04/15 03:37:01;;;;;;;12.45;4.88;;;8.00;99.90;;;;;;5233936;27;20021;-86
2024/04/15 03:39:27;;;;;;;12.43;3.63;;;8.00;99.90;;;;;;5259256;27;20017;-86
2024/04/15 03:41:53;;;;;;;12.80;4.03;;;8.00;99.90;;;;;;5276955;27;20022;-86
2024/04/15 03:44:19;;;;;;;12.77;4.07;;;7.90;99.90;;;;;;5276901;27;20076;-86
2024/04/15 03:46:44;;;;;;;10.90;3.40;;;7.90;99.90;;;;;;5273213;27;20002;-86
2024/04/15 03:49:10;;;;;;;10.38;4.05;;;7.80;99.90;;;;;;5251179;27;20007;-86
2024/04/15 03:51:35;;;;;;;10.35;4.10;;;7.80;99.90;;;;;;5245786;27;20009;-86
2024/04/15 03:54:01;;;;;;;11.07;3.65;;;7.80;99.90;;;;;;5248120;27;20003;-87
2024/04/15 03:56:26;;;;;;;8.95;3.22;;;7.70;99.90;;;;;;5258373;27;20006;-86
2024/04/15 03:58:52;;;;;;;13.90;3.58;;;7.70;99.90;;;;;;5274445;27;20072;-86
2024/04/15 04:01:18;;;;;;;11.25;3.75;;;7.70;99.90;;;;;;5276548;27;20025;-86
2024/04/15 04:03:43;;;;;;;12.35;3.88;;;7.60;99.90;;;;;;5260952;27;20003;-86
2024/04/15 04:06:09;;;;;;;9.77;3.45;;;7.60;99.90;;;;;;5268500;27;20014;-85
2024/04/15 04:08:34;;;;;;;14.82;3.13;;;7.50;99.90;;;;;;5243142;27;20014;-86
2024/04/15 04:11:06;;;;;;;8.77;2.80;;;7.50;99.90;;;;;;5272042;27;20025;-86
2024/04/15 04:13:34;;;;;;;10.82;2.63;;;7.50;99.90;;;;;;5271636;27;19998;-86
2024/04/15 04:16:00;;;;;;;9.38;2.97;;;7.50;99.90;;;;;;5275408;27;20002;-86
2024/04/15 04:18:25;;;;;;;12.15;3.47;;;7.50;99.90;;;;;;5251519;27;20013;-86
2024/04/15 04:20:51;;;;;;;11.80;2.70;;;7.50;99.90;;;;;;5249055;27;20087;-85
2024/04/15 04:23:17;;;;;;;7.85;3.00;;;7.40;99.90;;;;;;5274094;27;19998;-86
2024/04/15 04:25:42;;;;;;;10.45;2.83;;;7.50;99.90;;;;;;5265812;27;20013;-86
2024/04/15 04:28:08;;;;;;;16.92;3.22;;;7.40;99.90;;;;;;5278735;27;20338;-85
2024/04/15 04:30:34;;;;;;;10.75;2.55;;;7.40;99.90;;;;;;5265628;27;20003;-86
2024/04/15 04:32:59;;;;;;;11.20;2.72;;;7.40;99.90;;;;;;5279641;27;20481;-86
2024/04/15 04:35:25;;;;;;;11.27;2.90;;;7.40;99.90;;;;;;5270549;27;20002;-87
2024/04/15 04:37:51;;;;;;;14.48;3.00;;;7.40;99.90;;;;;;5274993;27;20037;-86
2024/04/15 04:40:16;;;;;;;10.15;2.03;;;7.40;99.90;;;;;;5258380;27;20034;-86
2024/04/15 04:42:42;;;;;;;11.55;2.38;;;7.40;99.90;;;;;;5279946;27;20006;-86
2024/04/15 04:45:08;;;;;;;9.90;2.25;;;7.40;99.90;;;;;;5278158;27;19999;-86
2024/04/15 04:47:33;;;;;;;5.95;2.25;;;7.40;99.90;;;;;;5279354;27;20320;-86
2024/04/15 04:49:59;;;;;;;11.45;2.33;;;7.40;99.90;;;;;;5279222;27;20079;-85
2024/04/15 04:52:24;;;;;;;11.73;2.40;;;7.40;99.90;;;;;;5241044;27;20017;-86
2024/04/15 04:54:50;;;;;;;13.77;2.28;;;7.40;99.90;;;;;;5266743;27;20004;-86
2024/04/15 04:57:16;;;;;;;10.40;3.25;;;7.40;99.90;;;;;;5268609;27;19994;-86
2024/04/15 04:59:41;;;;;;;12.63;2.53;;;7.40;99.90;;;;;;5279648;27;20002;-86
2024/04/15 05:02:07;;;;;;;9.02;2.20;;;7.40;99.90;;;;;;5275119;27;20009;-86
2024/04/15 05:04:33;;;;;;;10.48;2.40;;;7.40;99.90;;;;;;5274779;27;20026;-86
2024/04/15 05:06:59;;;;;;;15.27;2.10;;;7.40;99.90;;;;;;5239059;27;20450;-85
2024/04/15 05:09:24;;;;;;;11.93;2.33;;;7.40;99.90;;;;;;5271736;27;20016;-86
2024/04/15 05:11:50;;;;;;;10.50;2.13;;;7.40;99.90;;;;;;5259466;27;20020;-86
2024/04/15 05:14:15;;;;;;;10.18;2.47;;;7.40;99.90;;;;;;5277504;27;20080;-86
2024/04/15 05:16:41;;;;;;;19.05;2.97;;;7.40;99.90;;;;;;5270490;27;20017;-86
2024/04/15 05:19:08;;;;;;;6.97;2.20;;;7.40;99.90;;;;;;5276782;27;20047;-86
2024/04/15 05:21:34;;;;;;;11.20;2.53;;;7.50;99.90;;;;;;5274995;27;20470;-86
2024/04/15 05:24:00;;;;;;;11.98;2.20;;;7.50;99.90;;;;;;5245146;27;20080;-86
2024/04/15 05:26:25;;;;;;;11.27;2.70;;;7.50;99.90;;;;;;5238541;27;20022;-86
2024/04/15 05:28:51;;;;;;;11.73;2.67;;;7.50;99.90;;;;;;5273542;27;20059;-86
2024/04/15 05:31:16;;;;;;;13.60;2.55;;;7.50;99.90;;;;;;5266105;27;20003;-86
2024/04/15 05:33:42;;;;;;;10.52;3.03;;;7.50;99.90;;;;;;5277073;27;20357;-86
2024/04/15 05:36:08;;;;;;;20.20;2.90;;;7.50;99.90;;;;;;5249286;27;20012;-86
2024/04/15 05:38:33;;;;;;;11.18;2.63;;;7.50;99.90;;;;;;5263475;27;20009;-86
2024/04/15 05:40:59;;;;;;;14.23;2.60;;;7.50;99.90;;;;;;5244114;27;20121;-87
2024/04/15 05:43:25;;;;;;;12.40;2.45;;;7.60;99.90;;;;;;5277047;27;20073;-86
2024/04/15 05:45:51;;;;;;;9.43;2.50;;;7.60;99.90;;;;;;5248618;27;20332;-86
2024/04/15 05:48:17;;;;;;;18.30;4.03;;;7.70;99.90;;;;;;5271763;27;20072;-86
2024/04/15 05:50:44;;;;;;;12.48;2.70;;;7.70;99.90;;;;;;5277190;27;20014;-86
2024/04/15 05:53:09;;;;;;;19.00;2.97;;;7.80;99.90;;;;;;5277384;27;20013;-85
2024/04/15 05:55:35;;;;;;;11.93;2.40;;;7.80;99.90;;;;;;5262726;27;20001;-86
2024/04/15 05:58:01;;;;;;;8.32;2.55;;;7.80;99.90;;;;;;5273335;27;20535;-86
2024/04/15 06:00:26;;;;;;;12.13;2.63;;;7.90;99.90;;;;;;5275332;27;20010;-85
2024/04/15 06:02:52;;;;;;;9.75;2.30;;;7.90;99.90;;;;;;5247886;27;20006;-85
2024/04/15 06:05:19;;;;;;;8.73;2.22;;;8.00;99.90;;;;;;5249145;27;20006;-85
2024/04/15 06:07:45;;;;;;;11.35;2.25;;;8.10;99.90;;;;;;5274932;27;20466;-84
2024/04/15 06:10:10;;;;;;;13.18;2.60;;;8.10;99.90;;;;;;5263268;27;20014;-84
2024/04/15 06:12:36;;;;;;;16.70;2.85;;;8.20;99.90;;;;;;5263913;27;20021;-84
2024/04/15 06:15:02;;;;;;;12.68;2.47;;;8.30;99.90;;;;;;5274551;27;20017;-86
2024/04/15 06:17:28;;;;;;;8.57;2.10;;;8.30;99.90;;;;;;5237705;27;20003;-85
2024/04/15 06:19:54;;;;;;;16.83;2.53;;;8.40;99.90;;;;;;5238855;27;20021;-85
2024/04/15 06:22:20;;;;;;;8.68;1.80;;;8.50;99.90;;;;;;5234328;27;20038;-86
2024/04/15 06:24:45;;;;;;;16.20;2.50;;;8.50;99.90;;;;;;5248315;27;20016;-86
2024/04/15 06:27:12;;;;;;;13.27;2.70;;;8.60;99.90;;;;;;5246186;27;19999;-85
2024/04/15 06:29:38;;;;;;;11.80;2.70;;;8.60;99.90;;;;;;5244260;27;20110;-87
2024/04/15 06:32:04;;;;;;;18.50;2.90;;;8.70;99.90;;;;;;5247044;27;20009;-87
2024/04/15 06:34:30;;;;;;;11.82;2.83;;;8.70;99.90;;;;;;5253236;27;19998;-86
2024/04/15 06:36:57;;;;;;;16.63;2.50;;;8.70;99.90;;;;;;5253572;27;20021;-86
2024/04/15 06:39:23;;;;;;;12.70;2.28;;;8.70;99.90;;;;;;5244353;27;20015;-87
2024/04/15 06:41:48;;;;;;;9.60;1.88;;;8.80;99.90;;;;;;5248784;27;20002;-86
2024/04/15 06:44:14;;;;;;;8.50;1.63;;;8.90;99.90;;;;;;5270734;27;20051;-86
2024/04/15 06:46:40;;;;;;;7.85;1.58;;;9.00;99.90;;;;;;5276023;27;20354;-86
2024/04/15 06:49:06;;;;;;;14.52;1.63;;;9.10;99.90;;;;;;5243489;27;20006;-86
2024/04/15 06:51:32;;;;;;;10.07;1.98;;;9.20;99.90;;;;;;5269767;27;20018;-87
2024/04/15 06:53:58;;;;;;;11.60;1.70;;;9.30;99.90;;;;;;5272364;27;20014;-87
2024/04/15 06:56:24;;;;;;;14.75;2.40;;;9.30;99.90;;;;;;5244985;27;20323;-86
2024/04/15 06:58:50;;;;;;;8.15;1.77;;;9.50;99.90;;;;;;5270893;27;20002;-86
2024/04/15 07:01:15;;;;;;;9.80;2.55;;;9.60;99.90;;;;;;5262463;27;20003;-85
2024/04/15 07:03:41;;;;;;;7.45;1.30;;;9.60;99.90;;;;;;5266547;27;20046;-86
2024/04/15 07:06:06;;;;;;;10.85;1.60;;;9.70;99.90;;;;;;5240244;27;19994;-86
2024/04/15 07:08:32;;;;;;;11.68;1.55;;;9.80;99.90;;;;;;5247678;27;20002;-85
2024/04/15 07:10:58;;;;;;;11.40;1.42;;;9.80;99.90;;;;;;5268743;27;19999;-86
2024/04/15 07:13:24;;;;;;;8.98;1.45;;;9.90;99.90;;;;;;5227747;27;20002;-86
2024/04/15 07:16:03;;;;;;;6.63;1.33;;;10.00;99.90;;;;;;5403139;26;20413;-78
2024/04/15 07:18:29;;;;;;;15.63;1.23;;;10.10;99.90;;;;;;5400139;26;20011;-78
2024/04/15 07:20:55;;;;;;;7.18;1.40;;;10.20;99.90;;;;;;5396635;26;20007;-78
2024/04/15 07:23:20;;;;;;;10.00;1.30;;;10.30;99.90;;;;;;5383288;26;20013;-77
2024/04/15 07:25:46;;;;;;;10.40;1.00;;;10.50;99.90;;;;;;5354281;26;20012;-77
2024/04/15 07:28:11;;;;;;;17.50;2.03;;;10.80;99.90;;;;;;5380680;26;19996;-77
2024/04/15 07:30:37;;;;;;;7.47;1.17;;;11.00;99.90;;;;;;5359475;26;20000;-78
2024/04/15 07:33:03;;;;;;;5.85;0.80;;;11.10;99.90;;;;;;5369162;26;20008;-78
2024/04/15 07:35:31;;;;;;;8.13;1.02;;;11.20;99.90;;;;;;5371635;26;20023;-78
2024/04/15 07:37:57;;;;;;;4.13;1.02;;;11.20;99.90;;;;;;5362065;26;20001;-78
2024/04/15 07:40:22;;;;;;;6.90;1.00;;;11.30;99.90;;;;;;5375144;26;20016;-78
2024/04/15 07:42:48;;;;;;;7.80;1.00;;;11.30;99.90;;;;;;5373365;26;20007;-78
2024/04/15 07:45:14;;;;;;;6.72;0.85;;;11.20;99.90;;;;;;5384367;26;20012;-78
2024/04/15 07:47:39;;;;;;;7.88;1.70;;;11.20;99.90;;;;;;5371425;26;20074;-79
2024/04/15 07:50:06;;;;;;;9.02;1.48;;;11.20;99.90;;;;;;5380907;26;20355;-80
2024/04/15 07:52:32;;;;;;;10.75;1.00;;;11.20;99.90;;;;;;5373009;26;20008;-79
2024/04/15 07:54:58;;;;;;;8.35;1.65;;;11.30;99.90;;;;;;5362452;26;20015;-79
2024/04/15 07:57:23;;;;;;;9.00;1.25;;;11.40;99.90;;;;;;5368813;26;20357;-79
2024/04/15 07:59:49;;;;;;;8.68;1.08;;;11.40;99.90;;;;;;5373179;26;20001;-79
2024/04/15 08:02:14;;;;;;;9.23;1.95;;;11.40;99.90;;;;;;5364992;26;20083;-78
2024/04/15 08:04:40;;;;;;;7.70;1.75;;;11.40;99.90;;;;;;5365226;26;20001;-79
2024/04/15 08:07:05;;;;;;;9.30;1.48;;;11.40;99.90;;;;;;5380756;26;20453;-79
2024/04/15 08:09:31;;;;;;;4.80;1.35;;;11.50;99.90;;;;;;5390456;26;20004;-79
2024/04/15 08:11:57;;;;;;;9.35;1.77;;;11.70;99.90;;;;;;5362441;26;20343;-79
2024/04/15 08:14:22;;;;;;;11.02;2.15;;;11.70;99.90;;;;;;5357358;26;20012;-78
2024/04/15 08:16:48;;;;;;;10.35;2.00;;;11.70;99.90;;;;;;5372544;26;20472;-77
2024/04/15 08:19:14;;;;;;;7.38;1.92;;;11.70;99.90;;;;;;5369655;26;20078;-78
2024/04/15 08:21:39;;;;;;;13.23;2.38;;;11.70;99.90;;;;;;5384794;26;20001;-79
2024/04/15 08:24:06;;;;;;;10.27;2.90;;;11.80;99.90;;;;;;5365199;26;20076;-78
2024/04/15 08:26:31;;;;;;;9.02;1.92;;;11.80;99.90;;;;;;5381208;26;20000;-78
2024/04/15 08:28:58;;;;;;;10.48;2.47;;;11.90;99.90;;;;;;5364047;26;19992;-77
2024/04/15 08:31:23;;;;;;;7.38;2.00;;;12.00;99.90;;;;;;5347161;26;20008;-78
2024/04/15 08:33:49;;;;;;;9.55;2.22;;;12.10;99.90;;;;;;5349549;26;20000;-78
2024/04/15 08:36:15;;;;;;;8.25;1.65;;;12.10;99.90;;;;;;5346085;26;20016;-78
2024/04/15 08:38:44;;;;;;;10.25;1.25;;;12.20;99.90;;;;;;5363440;26;20078;-79
2024/04/15 08:41:25;;;;;;;9.43;1.27;;;12.30;99.90;;;;;;5346295;26;20000;-79
2024/04/15 08:43:53;;;;;;;6.97;1.00;;;12.30;99.90;;;;;;5359314;26;20095;-79
2024/04/15 08:46:23;;;;;;;5.60;1.30;;;12.30;99.90;;;;;;5354962;26;20009;-78
2024/04/15 08:48:50;;;;;;;9.10;0.82;;;12.30;99.90;;;;;;5354845;26;20078;-78
2024/04/15 08:51:18;;;;;;;9.93;1.10;;;12.30;99.90;;;;;;5356425;26;20042;-79
2024/04/15 08:53:44;;;;;;;3.33;0.80;;;12.30;99.90;;;;;;5358911;26;20342;-77
2024/04/15 08:56:10;;;;;;;6.00;1.00;;;12.40;99.90;;;;;;5351944;26;20032;-78
2024/04/15 08:58:37;;;;;;;9.38;1.10;;;12.30;99.90;;;;;;5348235;26;19997;-78
2024/04/15 09:01:04;;;;;;;9.95;1.70;;;12.40;99.90;;;;;;5355916;26;20007;-78
2024/04/15 09:03:31;;;;;;;7.68;1.63;;;12.50;99.90;;;;;;5366692;26;20282;-78
2024/04/15 09:05:57;;;;;;;6.28;0.75;;;12.60;99.90;;;;;;5350410;26;20001;-77
2024/04/15 09:08:22;;;;;;;12.07;1.17;;;12.60;99.90;;;;;;5346734;26;19996;-80
2024/04/15 09:10:48;;;;;;;8.05;0.88;;;12.60;99.90;;;;;;5360358;26;20035;-78
2024/04/15 09:13:15;;;;;;;8.50;1.10;;;12.50;99.90;;;;;;5374432;26;20348;-76
2024/04/15 09:15:40;;;;;;;6.13;0.95;;;12.60;99.90;;;;;;5360877;26;20329;-76
2024/04/15 09:18:06;;;;;;;7.47;1.13;;;12.60;99.90;;;;;;5352994;26;20004;-78
2024/04/15 09:20:32;;;;;;;12.70;1.02;;;12.80;99.90;;;;;;5358092;26;22006;-77
2024/04/15 09:23:02;;;;;;;5.47;0.80;;;13.10;99.90;;;;;;5360258;26;19996;-77
2024/04/15 09:25:28;;;;;;;7.30;0.90;;;13.30;99.90;;;;;;5357689;26;19997;-77
2024/04/15 09:27:56;;;;;;;5.93;0.82;;;13.40;99.90;;;;;;5353839;26;20021;-77
2024/04/15 09:30:22;;;;;;;4.85;0.68;;;13.30;99.90;;;;;;5365695;26;19996;-78
2024/04/15 09:32:48;;;;;;;9.65;0.70;;;13.40;99.90;;;;;;5351512;26;19997;-77
2024/04/15 09:35:13;;;;;;;4.40;0.70;;;13.50;99.90;;;;;;5357078;26;20024;-77
2024/04/15 09:37:39;;;;;;;8.23;0.80;;;13.50;99.90;;;;;;5348467;26;20004;-77
2024/04/15 09:40:13;;;;;;;11.82;0.98;;;13.40;99.90;;;;;;5358382;26;20451;-77
2024/04/15 09:42:40;;;;;;;9.38;0.90;;;13.40;99.90;;;;;;5380645;26;20073;-78
2024/04/15 09:45:09;;;;;;;5.07;0.60;;;13.40;99.90;;;;;;5354320;26;20036;-78
2024/04/15 09:47:34;;;;;;;5.85;0.93;;;13.30;99.90;;;;;;5348212;26;20011;-79
2024/04/15 09:50:00;;;;;;;7.93;0.95;;;13.20;99.90;;;;;;5371184;26;20440;-79
2024/04/15 09:52:30;;;;;;;8.63;0.90;;;13.10;99.90;;;;;;5358564;26;20007;-78
2024/04/15 09:55:07;;;;;;;7.20;0.82;;;13.10;99.90;;;;;;5379402;26;20004;-77
2024/04/15 09:57:36;;;;;;;5.55;0.70;;;13.00;99.90;;;;;;5345955;26;20013;-78
2024/04/15 10:00:02;;;;;;;9.65;0.95;;;13.00;99.90;;;;;;5346660;26;20344;-78
2024/04/15 10:02:52;;;;;;;8.93;0.60;;;13.00;99.90;;;;;;5377948;26;20011;-77
2024/04/15 10:05:26;;;;;;;8.27;0.60;;;12.80;99.90;;;;;;5357374;26;20049;-78
2024/04/15 10:07:53;;;;;;;6.32;0.80;;;12.80;99.90;;;;;;5354074;26;20008;-78
2024/04/15 10:10:20;;;;;;;3.10;0.40;;;12.80;99.90;;;;;;5354196;26;20001;-78
2024/04/15 10:12:50;;;;;;;6.97;0.75;;;12.80;99.90;;;;;;5357100;26;20007;-78
2024/04/15 10:15:17;;;;;;;8.07;0.98;;;12.90;99.90;;;;;;5358677;26;20346;-79
2024/04/15 10:18:04;;;;;;;5.22;0.50;;;12.90;99.90;;;;;;5373120;26;20008;-78
2024/04/15 10:20:35;;;;;;;6.20;0.60;;;12.80;99.90;;;;;;5360458;26;20502;-78
2024/04/15 10:23:06;;;;;;;6.30;0.82;;;12.60;99.90;;;;;;5345858;26;20037;-78
2024/04/15 10:25:32;;;;;;;6.57;0.60;;;12.50;99.90;;;;;;5346851;26;20464;-78
2024/04/15 10:27:58;;;;;;;3.63;0.73;;;12.50;99.90;;;;;;5369501;26;20004;-78
2024/04/15 10:30:31;;;;;;;5.32;0.60;;;12.50;99.90;;;;;;5354342;26;20432;-78
2024/04/15 10:33:05;;;;;;;5.78;0.63;;;12.50;99.90;;;;;;5347858;26;20433;-78
2024/04/15 10:35:35;;;;;;;6.32;0.65;;;12.50;99.90;;;;;;5356056;26;20440;-78
2024/04/15 10:38:04;;;;;;;4.15;0.50;;;12.40;99.90;;;;;;5366349;26;20087;-78
2024/04/15 10:40:38;;;;;;;6.35;0.80;;;12.40;99.90;;;;;;5347776;26;20036;-78
2024/04/15 10:43:05;;;;;;;5.28;0.50;;;12.30;99.90;;;;;;5348547;26;20001;-78
2024/04/15 10:45:32;;;;;;;7.03;0.90;;;12.20;99.90;;;;;;5365129;26;20464;-77
2024/04/15 10:47:57;;;;;;;8.55;0.90;;;12.10;99.90;;;;;;5352347;26;20442;-77
2024/04/15 10:50:23;;;;;;;5.78;0.70;;;12.00;99.90;;;;;;5356106;26;20000;-77
2024/04/15 10:52:50;;;;;;;9.27;0.50;;;11.90;99.90;;;;;;5346202;26;20008;-78
2024/04/15 10:55:16;;;;;;;7.85;0.70;;;11.80;99.90;;;;;;5357851;26;20005;-79
2024/04/15 10:57:42;;;;;;;5.82;0.47;;;11.80;99.90;;;;;;5362776;26;19992;-80
2024/04/15 11:00:15;;;;;;;9.55;0.60;;;11.70;99.90;;;;;;5353091;26;20007;-78
2024/04/15 11:02:46;;;;;;;5.70;0.60;;;11.50;99.90;;;;;;5353026;26;20056;-78
2024/04/15 11:05:13;;;;;;;6.68;0.82;;;11.40;99.90;;;;;;5364466;26;20139;-79
2024/04/15 11:07:39;;;;;;;6.85;0.82;;;11.30;99.90;;;;;;5346474;26;20016;-79
2024/04/15 11:10:07;;;;;;;5.50;0.70;;;11.40;99.90;;;;;;5349966;26;20001;-79
2024/04/15 11:12:34;;;;;;;3.58;0.47;;;11.40;99.90;;;;;;5343797;26;20460;-79
2024/04/15 11:14:59;;;;;;;5.88;0.60;;;11.50;99.90;;;;;;5345442;26;19993;-79
2024/04/15 11:17:25;;;;;;;6.07;0.77;;;11.40;99.90;;;;;;5357207;26;20329;-79
2024/04/15 11:20:01;;;;;;;6.03;0.82;;;11.50;99.90;;;;;;5351960;26;20391;-78
2024/04/15 11:22:27;;;;;;;10.77;0.95;;;11.50;99.90;;;;;;5359464;26;19997;-79
2024/04/15 11:24:53;;;;;;;9.75;1.17;;;11.40;99.90;;;;;;5352334;26;20093;-78
2024/04/15 11:27:19;;;;;;;6.43;0.73;;;11.30;99.90;;;;;;5349795;26;20013;-79
2024/04/15 11:29:47;;;;;;;5.35;0.68;;;11.30;99.90;;;;;;5371503;26;20026;-79
2024/04/15 11:32:13;;;;;;;8.15;0.80;;;11.10;99.90;;;;;;5354333;26;20037;-79
2024/04/15 11:34:39;;;;;;;9.38;0.82;;;11.00;99.90;;;;;;5347812;26;20007;-79
2024/04/15 11:37:07;;;;;;;5.07;0.70;;;10.90;99.90;;;;;;5370796;26;20077;-79
2024/04/15 11:39:32;;;;;;;7.40;0.60;;;10.90;99.90;;;;;;5361933;26;20000;-80
2024/04/15 11:41:58;;;;;;;11.88;0.88;;;10.80;99.90;;;;;;5367131;26;20335;-79
2024/04/15 11:44:24;;;;;;;5.20;0.70;;;10.70;99.90;;;;;;5377141;26;20011;-80
2024/04/15 11:46:53;;;;;;;6.32;1.25;;;10.70;99.90;;;;;;5366785;26;20005;-79
2024/04/15 11:49:19;;;;;;;5.85;0.73;;;10.60;99.90;;;;;;5342436;26;20015;-79
2024/04/15 11:51:46;;;;;;;9.82;0.80;;;10.60;99.90;;;;;;5353848;26;20005;-79
2024/04/15 11:54:12;;;;;;;7.47;0.73;;;10.50;99.90;;;;;;5362716;26;20004;-79
2024/04/15 11:56:38;;;;;;;5.15;0.52;;;10.60;99.90;;;;;;5347633;26;20008;-79
2024/04/15 11:59:04;;;;;;;6.07;0.60;;;10.60;99.90;;;;;;5367016;26;20418;-79
2024/04/15 12:01:30;;;;;;;4.20;0.98;;;10.70;99.90;;;;;;5353146;26;19996;-79
2024/04/15 12:03:55;;;;;;;9.95;0.70;;;10.90;99.90;;;;;;5359779;26;20000;-79
2024/04/15 12:06:22;;;;;;;6.40;0.70;;;11.00;99.90;;;;;;5349926;26;21964;-79
2024/04/15 12:08:47;;;;;;;3.83;0.82;;;11.20;99.90;;;;;;5363685;26;20011;-80
2024/04/15 12:11:13;;;;;;;5.85;0.70;;;11.40;99.90;;;;;;5358901;26;20001;-80
2024/04/15 12:13:42;;;;;;;4.68;0.70;;;11.50;99.90;;;;;;5360409;26;20024;-80
2024/04/15 12:16:09;;;;;;;4.72;0.60;;;11.60;99.90;;;;;;5353326;26;20086;-80
2024/04/15 12:18:35;;;;;;;7.45;1.20;;;11.60;99.90;;;;;;5349229;26;20074;-78
2024/04/15 12:21:00;;;;;;;5.43;0.77;;;11.80;99.90;;;;;;5371128;26;20398;-78
2024/04/15 12:23:26;;;;;;;8.57;1.17;;;11.90;99.90;;;;;;5359181;26;20019;-78
2024/04/15 12:25:51;;;;;;;8.10;1.23;;;11.90;99.90;;;;;;5360751;26;20011;-78
2024/04/15 12:28:17;;;;;;;5.63;0.70;;;11.90;99.90;;;;;;5345858;26;20001;-78
2024/04/15 12:30:43;;;;;;;4.28;0.73;;;11.90;99.90;;;;;;5352347;26;20005;-77
2024/04/15 12:33:09;;;;;;;5.18;0.70;;;11.60;99.90;;;;;;5368638;26;20081;-77
2024/04/15 12:35:34;;;;;;;6.78;0.82;;;11.50;99.90;;;;;;5357461;26;20005;-78
2024/04/15 12:38:00;;;;;;;5.50;0.82;;;11.30;99.90;;;;;;5346749;26;20000;-77
2024/04/15 12:40:25;;;;;;;4.18;0.70;;;11.30;99.90;;;;;;5367614;26;20000;-77
2024/04/15 12:42:51;;;;;;;4.82;0.88;;;11.30;99.90;;;;;;5374744;26;20351;-77